Stena Germanica — SKPZ — position and weather

sailwx.info

Track history (hours):
 
Tides and Currents Weather Stations Pressure Air Temp Water Temp Dewpoint Dewpoint Depression Visibility Wind Speed Wind Dir Waves Ship Positions

Stena Germanica

Last reported at 2015-Mar-06 17:28 UTC. Time now 2015-Mar-06 17:38 UTC.
Position N 56°10' E 015°38'.

Length 176 m; draft 6.3 m.

Type: Passenger vessel. MMSI: 265292000.

Date/timePositionNaut miles runAvg speedWind from/ knotsBaromVisibWave heightAir tempDewpointWater temp
2015-Mar-06 17:28N 56°10' E 015°38'0 0.0
2015-Mar-06 08:10N 56°10' E 015°38'3 4.4
2015-Mar-06 07:33N 56°08' E 015°35'4814.7
2015-Mar-06 04:16N 55°40' E 016°47'1815.4
2015-Mar-06 03:06N 55°30' E 017°13'915.5
2015-Mar-06 02:33N 55°25' E 017°25'1514.9
2015-Mar-06 01:33N 55°16' E 017°45'1616.0
2015-Mar-06 00:33N 55°07' E 018°08'1615.7
2015-Mar-05 23:34N 54°58' E 018°30'1616.4
2015-Mar-05 22:34N 54°45' E 018°50'1413.7
2015-Mar-05 21:33N 54°32' E 018°48'1010.3
2015-Mar-05 20:33N 54°33' E 018°30'0 0.0
2015-Mar-05 19:33N 54°33' E 018°30'6 6.1
2015-Mar-05 18:33N 54°32' E 018°41'1313.4
2015-Mar-05 17:33N 54°44' E 018°53'1817.6
2015-Mar-05 16:33N 54°57' E 018°34'1717.5
2015-Mar-05 15:34N 55°07' E 018°09'10517.5
2015-Mar-05 09:32N 56°06' E 015°34'4 4.1
2015-Mar-05 08:29N 56°10' E 015°38'0 0.1
2015-Mar-05 07:33N 56°10' E 015°38'1210.8
2015-Mar-05 06:29N 55°59' E 015°46'1914.7
2015-Mar-05 05:13N 55°48' E 016°14'6914.8
2015-Mar-05 00:32N 55°11' E 017°56'1515.2
2015-Mar-04 23:33N 55°03' E 018°18'1515.6
2015-Mar-04 22:33N 54°53' E 018°40'1616.3
2015-Mar-04 21:34N 54°41' E 018°58'1514.5
2015-Mar-04 20:34N 54°32' E 018°39'5 5.0
2015-Mar-04 19:32N 54°33' E 018°30'0 0.0
2015-Mar-04 18:33N 54°33' E 018°30'7 7.1
2015-Mar-04 17:34N 54°32' E 018°42'1616.0
2015-Mar-04 16:33N 54°46' E 018°58'1717.5
2015-Mar-04 15:34N 54°56' E 018°34'1717.3
2015-Mar-04 14:33N 55°07' E 018°10'8 0.5
2015-Mar-03 23:16N 55°01' E 018°21'1216.3
2015-Mar-03 22:33N 54°54' E 018°37'1717.2
2015-Mar-03 21:33N 54°42' E 018°57'1514.7
2015-Mar-03 20:33N 54°32' E 018°38'5 4.4
2015-Mar-03 19:32N 54°33' E 018°30'0 0.0
2015-Mar-03 18:32N 54°33' E 018°30'6 5.7
2015-Mar-03 17:34N 54°32' E 018°40'1313.3
2015-Mar-03 16:33N 54°42' E 018°55'1818.0
2015-Mar-03 15:33N 54°56' E 018°35'1717.2
2015-Mar-03 14:33N 55°07' E 018°12'4 0.3
2015-Mar-02 22:07N 55°08' E 018°04'813.7
2015-Mar-02 21:33N 55°04' E 018°16'1514.7
2015-Mar-02 20:34N 54°55' E 018°37'1616.1
2015-Mar-02 19:34N 54°43' E 018°55'1413.7
2015-Mar-02 18:34N 54°32' E 018°41'6 6.4
2015-Mar-02 17:33N 54°33' E 018°30'0 0.0
2015-Mar-02 16:33N 54°33' E 018°30'0 0.0
2015-Mar-02 15:33N 54°33' E 018°30'0 0.0
2015-Mar-02 14:33N 54°33' E 018°30'0 0.0
2015-Mar-02 13:33N 54°33' E 018°30'0 0.0
2015-Mar-02 12:33N 54°33' E 018°30'0 0.0
2015-Mar-02 11:33N 54°33' E 018°30'0 0.0
2015-Mar-02 10:33N 54°33' E 018°30'0 0.0
2015-Mar-02 09:33N 54°33' E 018°30'0 0.0
2015-Mar-02 08:33N 54°33' E 018°30'1 1.0
2015-Mar-02 07:33N 54°32' E 018°32'1211.9
2015-Mar-02 06:33N 54°35' E 018°52'1313.1
2015-Mar-02 05:33N 54°48' E 018°50'1515.0
2015-Mar-02 04:33N 54°59' E 018°32'1514.9
2015-Mar-02 03:33N 55°07' E 018°11'1 0.1
2015-Mar-01 11:31N 55°06' E 018°10'1616.4
2015-Mar-01 10:33N 54°57' E 018°33'1716.9
2015-Mar-01 09:33N 54°44' E 018°52'1313.4
2015-Mar-01 08:34N 54°32' E 018°45'9 8.4
2015-Mar-01 07:32N 54°33' E 018°30'0 0.0
2015-Mar-01 06:32N 54°33' E 018°30'5 5.2
2015-Mar-01 05:33N 54°32' E 018°39'1514.6
2015-Mar-01 04:33N 54°43' E 018°56'1817.5
2015-Mar-01 03:33N 54°56' E 018°36'1717.0
2015-Mar-01 02:33N 55°06' E 018°11'3 0.2
2015-Feb-28 11:33N 55°04' E 018°15'1717.4
2015-Feb-28 10:34N 54°55' E 018°40'1717.1
2015-Feb-28 09:34N 54°41' E 018°59'1514.9
2015-Feb-28 08:33N 54°32' E 018°38'5 4.7
2015-Feb-28 07:33N 54°33' E 018°30'0 0.0
2015-Feb-28 06:33N 54°33' E 018°30'6 5.6
2015-Feb-28 05:33N 54°32' E 018°40'1312.9
2015-Feb-28 04:33N 54°41' E 018°56'1414.5
2015-Feb-28 03:33N 54°53' E 018°41'1514.5
2015-Feb-28 02:33N 55°02' E 018°21'1514.7
2015-Feb-28 01:33N 55°09' E 017°60'18 0.8
2015-Feb-27 02:19N 55°19' E 017°33'1216.3
2015-Feb-27 01:33N 55°12' E 017°51'1816.4
2015-Feb-27 00:29N 55°03' E 018°17'1516.2
2015-Feb-26 23:33N 54°54' E 018°38'1616.4
2015-Feb-26 22:33N 54°41' E 018°56'1313.3
2015-Feb-26 21:34N 54°32' E 018°40'6 5.9
2015-Feb-26 20:33N 54°33' E 018°30'0 0.0
2015-Feb-26 19:33N 54°33' E 018°30'6 6.1
2015-Feb-26 18:33N 54°32' E 018°41'1313.5
2015-Feb-26 17:33N 54°44' E 018°53'1818.2
2015-Feb-26 16:33N 54°58' E 018°33'2018.1
2015-Feb-26 15:29N 55°09' E 018°05'16 1.1
2015-Feb-26 01:23N 55°17' E 017°42'1315.2
2015-Feb-26 00:33N 55°10' E 018°00'1515.2
2015-Feb-25 23:33N 55°01' E 018°22'1515.0
2015-Feb-25 22:33N 54°51' E 018°41'1514.8
2015-Feb-25 21:33N 54°39' E 018°57'1313.1
2015-Feb-25 20:33N 54°32' E 018°39'5 4.5
2015-Feb-25 19:29N 54°33' E 018°30'0 0.0
2015-Feb-25 18:33N 54°33' E 018°30'6 6.0
2015-Feb-25 17:33N 54°32' E 018°41'1413.6
2015-Feb-25 16:33N 54°44' E 018°53'1818.3
2015-Feb-25 15:33N 54°58' E 018°33'2018.3
2015-Feb-25 14:26N 55°09' E 018°03'1 0.0
2015-Feb-25 00:13N 55°09' E 018°02'1117.3
2015-Feb-24 23:33N 55°03' E 018°19'1717.0
2015-Feb-24 22:33N 54°52' E 018°41'1616.3
2015-Feb-24 21:33N 54°38' E 018°56'1413.8
2015-Feb-24 20:33N 54°32' E 018°35'3 2.7
2015-Feb-24 19:31N 54°33' E 018°30'0 0.0
2015-Feb-24 18:33N 54°33' E 018°30'6 6.0
2015-Feb-24 17:33N 54°32' E 018°41'  
Track history (hours):
 
Tides and Currents Weather Stations Pressure Air Temp Water Temp Dewpoint Dewpoint Depression Visibility Wind Speed Wind Dir Waves Ship Positions

Stena Germanica

Last reported at 2015-Mar-06 17:28 UTC. Time now 2015-Mar-06 17:38 UTC.
Position N 56°10' E 015°38'.

Length 176 m; draft 6.3 m.

Type: Passenger vessel. MMSI: 265292000.

Date/timePositionNaut miles runAvg speedWind from/ knotsBaromVisibWave heightAir tempDewpointWater temp
2015-Mar-06 17:28N 56°10' E 015°38'0 0.0
2015-Mar-06 08:10N 56°10' E 015°38'3 4.4
2015-Mar-06 07:33N 56°08' E 015°35'4814.7
2015-Mar-06 04:16N 55°40' E 016°47'1815.4
2015-Mar-06 03:06N 55°30' E 017°13'915.5
2015-Mar-06 02:33N 55°25' E 017°25'1514.9
2015-Mar-06 01:33N 55°16' E 017°45'1616.0
2015-Mar-06 00:33N 55°07' E 018°08'1615.7
2015-Mar-05 23:34N 54°58' E 018°30'1616.4
2015-Mar-05 22:34N 54°45' E 018°50'1413.7
2015-Mar-05 21:33N 54°32' E 018°48'1010.3
2015-Mar-05 20:33N 54°33' E 018°30'0 0.0
2015-Mar-05 19:33N 54°33' E 018°30'6 6.1
2015-Mar-05 18:33N 54°32' E 018°41'1313.4
2015-Mar-05 17:33N 54°44' E 018°53'1817.6
2015-Mar-05 16:33N 54°57' E 018°34'1717.5
2015-Mar-05 15:34N 55°07' E 018°09'10517.5
2015-Mar-05 09:32N 56°06' E 015°34'4 4.1
2015-Mar-05 08:29N 56°10' E 015°38'0 0.1
2015-Mar-05 07:33N 56°10' E 015°38'1210.8
2015-Mar-05 06:29N 55°59' E 015°46'1914.7
2015-Mar-05 05:13N 55°48' E 016°14'6914.8
2015-Mar-05 00:32N 55°11' E 017°56'1515.2
2015-Mar-04 23:33N 55°03' E 018°18'1515.6
2015-Mar-04 22:33N 54°53' E 018°40'1616.3
2015-Mar-04 21:34N 54°41' E 018°58'1514.5
2015-Mar-04 20:34N 54°32' E 018°39'5 5.0
2015-Mar-04 19:32N 54°33' E 018°30'0 0.0
2015-Mar-04 18:33N 54°33' E 018°30'7 7.1
2015-Mar-04 17:34N 54°32' E 018°42'1616.0
2015-Mar-04 16:33N 54°46' E 018°58'1717.5
2015-Mar-04 15:34N 54°56' E 018°34'1717.3
2015-Mar-04 14:33N 55°07' E 018°10'8 0.5
2015-Mar-03 23:16N 55°01' E 018°21'1216.3
2015-Mar-03 22:33N 54°54' E 018°37'1717.2
2015-Mar-03 21:33N 54°42' E 018°57'1514.7
2015-Mar-03 20:33N 54°32' E 018°38'5 4.4
2015-Mar-03 19:32N 54°33' E 018°30'0 0.0
2015-Mar-03 18:32N 54°33' E 018°30'6 5.7
2015-Mar-03 17:34N 54°32' E 018°40'1313.3
2015-Mar-03 16:33N 54°42' E 018°55'1818.0
2015-Mar-03 15:33N 54°56' E 018°35'1717.2
2015-Mar-03 14:33N 55°07' E 018°12'4 0.3
2015-Mar-02 22:07N 55°08' E 018°04'813.7
2015-Mar-02 21:33N 55°04' E 018°16'1514.7
2015-Mar-02 20:34N 54°55' E 018°37'1616.1
2015-Mar-02 19:34N 54°43' E 018°55'1413.7
2015-Mar-02 18:34N 54°32' E 018°41'6 6.4
2015-Mar-02 17:33N 54°33' E 018°30'0 0.0
2015-Mar-02 16:33N 54°33' E 018°30'0 0.0
2015-Mar-02 15:33N 54°33' E 018°30'0 0.0
2015-Mar-02 14:33N 54°33' E 018°30'0 0.0
2015-Mar-02 13:33N 54°33' E 018°30'0 0.0
2015-Mar-02 12:33N 54°33' E 018°30'0 0.0
2015-Mar-02 11:33N 54°33' E 018°30'0 0.0
2015-Mar-02 10:33N 54°33' E 018°30'0 0.0
2015-Mar-02 09:33N 54°33' E 018°30'0 0.0
2015-Mar-02 08:33N 54°33' E 018°30'1 1.0
2015-Mar-02 07:33N 54°32' E 018°32'1211.9
2015-Mar-02 06:33N 54°35' E 018°52'1313.1
2015-Mar-02 05:33N 54°48' E 018°50'1515.0
2015-Mar-02 04:33N 54°59' E 018°32'1514.9
2015-Mar-02 03:33N 55°07' E 018°11'1 0.1
2015-Mar-01 11:31N 55°06' E 018°10'1616.4
2015-Mar-01 10:33N 54°57' E 018°33'1716.9
2015-Mar-01 09:33N 54°44' E 018°52'1313.4
2015-Mar-01 08:34N 54°32' E 018°45'9 8.4
2015-Mar-01 07:32N 54°33' E 018°30'0 0.0
2015-Mar-01 06:32N 54°33' E 018°30'5 5.2
2015-Mar-01 05:33N 54°32' E 018°39'1514.6
2015-Mar-01 04:33N 54°43' E 018°56'1817.5
2015-Mar-01 03:33N 54°56' E 018°36'1717.0
2015-Mar-01 02:33N 55°06' E 018°11'3 0.2
2015-Feb-28 11:33N 55°04' E 018°15'1717.4
2015-Feb-28 10:34N 54°55' E 018°40'1717.1
2015-Feb-28 09:34N 54°41' E 018°59'1514.9
2015-Feb-28 08:33N 54°32' E 018°38'5 4.7
2015-Feb-28 07:33N 54°33' E 018°30'0 0.0
2015-Feb-28 06:33N 54°33' E 018°30'6 5.6
2015-Feb-28 05:33N 54°32' E 018°40'1312.9
2015-Feb-28 04:33N 54°41' E 018°56'1414.5
2015-Feb-28 03:33N 54°53' E 018°41'1514.5
2015-Feb-28 02:33N 55°02' E 018°21'1514.7
2015-Feb-28 01:33N 55°09' E 017°60'18 0.8
2015-Feb-27 02:19N 55°19' E 017°33'1216.3
2015-Feb-27 01:33N 55°12' E 017°51'1816.4
2015-Feb-27 00:29N 55°03' E 018°17'1516.2
2015-Feb-26 23:33N 54°54' E 018°38'1616.4
2015-Feb-26 22:33N 54°41' E 018°56'1313.3
2015-Feb-26 21:34N 54°32' E 018°40'6 5.9
2015-Feb-26 20:33N 54°33' E 018°30'0 0.0
2015-Feb-26 19:33N 54°33' E 018°30'6 6.1
2015-Feb-26 18:33N 54°32' E 018°41'1313.5
2015-Feb-26 17:33N 54°44' E 018°53'1818.2
2015-Feb-26 16:33N 54°58' E 018°33'2018.1
2015-Feb-26 15:29N 55°09' E 018°05'16 1.1
2015-Feb-26 01:23N 55°17' E 017°42'1315.2
2015-Feb-26 00:33N 55°10' E 018°00'1515.2
2015-Feb-25 23:33N 55°01' E 018°22'1515.0
2015-Feb-25 22:33N 54°51' E 018°41'1514.8
2015-Feb-25 21:33N 54°39' E 018°57'1313.1
2015-Feb-25 20:33N 54°32' E 018°39'5 4.5
2015-Feb-25 19:29N 54°33' E 018°30'0 0.0
2015-Feb-25 18:33N 54°33' E 018°30'6 6.0
2015-Feb-25 17:33N 54°32' E 018°41'1413.6
2015-Feb-25 16:33N 54°44' E 018°53'1818.3
2015-Feb-25 15:33N 54°58' E 018°33'2018.3
2015-Feb-25 14:26N 55°09' E 018°03'1 0.0
2015-Feb-25 00:13N 55°09' E 018°02'1117.3
2015-Feb-24 23:33N 55°03' E 018°19'1717.0
2015-Feb-24 22:33N 54°52' E 018°41'1616.3
2015-Feb-24 21:33N 54°38' E 018°56'1413.8
2015-Feb-24 20:33N 54°32' E 018°35'3 2.7
2015-Feb-24 19:31N 54°33' E 018°30'0 0.0
2015-Feb-24 18:33N 54°33' E 018°30'6 6.0
2015-Feb-24 17:33N 54°32' E 018°41'  

Dump ship's entire track history